Time;durP1;ratioP1;P1;durP2;ratioP2;P2;SDS_P1;SDS_P2;PMS_P1;PMS_P2;Temp;Humidity;BMP_temperature;BMP_pressure;BME280_temperature;BME280_humidity;BME280_pressure;Samples;Min_cycle;Max_cycle;Signal;HPM_P1;HPM_P2
2022/04/24 04:32:44;;;;;;;;;17.00;15.25;;;;;15.22;54.76;99567.38;5059316;28;45667;-48
2022/04/24 04:35:09;;;;;;;;;15.00;14.25;;;;;15.12;55.29;99572.66;5061663;28;45403;-48
2022/04/24 04:37:39;;;;;;;;;18.50;18.50;;;;;15.06;55.76;99581.25;5061262;28;45326;-50
2022/04/24 04:40:06;;;;;;;;;19.25;18.25;;;;;14.97;56.20;99571.22;5060859;28;45367;-49
2022/04/24 04:42:31;;;;;;;;;20.75;16.00;;;;;14.81;56.11;99564.50;5061434;28;45415;-48
2022/04/24 04:44:59;;;;;;;;;12.00;11.00;;;;;14.73;56.66;99578.63;5061414;28;46039;-47
2022/04/24 04:47:24;;;;;;;;;17.00;17.00;;;;;14.65;57.38;99573.00;5059703;28;45329;-50
2022/04/24 04:49:50;;;;;;;;;16.25;15.00;;;;;14.54;57.36;99579.28;5061806;28;45299;-50
2022/04/24 04:52:16;;;;;;;;;19.75;19.00;;;;;14.52;57.62;99580.38;5060968;28;45997;-48
2022/04/24 04:54:41;;;;;;;;;17.00;15.25;;;;;14.42;57.42;99568.63;5062041;28;46316;-47
2022/04/24 04:57:07;;;;;;;;;17.75;16.50;;;;;14.51;57.69;99582.22;5061082;28;45439;-50
2022/04/24 04:59:32;;;;;;;;;18.00;17.00;;;;;14.51;57.17;99595.72;5061344;28;45314;-49
2022/04/24 05:01:57;;;;;;;;;23.75;21.25;;;;;14.53;57.41;99599.16;5060665;28;45896;-50
2022/04/24 05:04:23;;;;;;;;;20.25;19.25;;;;;14.48;57.34;99609.44;5061125;28;45536;-49
2022/04/24 05:06:48;;;;;;;;;19.00;17.50;;;;;14.45;57.89;99601.59;5060960;28;45310;-52
2022/04/24 05:09:13;;;;;;;;;16.75;16.75;;;;;14.31;58.51;99610.75;5060963;28;45461;-48
2022/04/24 05:11:39;;;;;;;;;21.75;21.50;;;;;14.27;57.99;99606.59;5060838;28;45360;-51
2022/04/24 05:14:05;;;;;;;;;20.75;19.50;;;;;14.23;58.54;99609.63;5060301;28;46161;-47
2022/04/24 05:16:31;;;;;;;;;20.75;18.50;;;;;14.27;57.86;99616.50;5060690;28;45457;-49
2022/04/24 05:18:58;;;;;;;;;20.25;18.25;;;;;14.30;57.81;99614.41;5060038;28;45509;-51
2022/04/24 05:21:23;;;;;;;;;16.00;12.50;;;;;14.32;57.88;99611.59;5060722;28;45359;-52
2022/04/24 05:23:49;;;;;;;;;21.25;20.00;;;;;14.39;57.25;99626.34;5060526;28;46305;-52
2022/04/24 05:26:15;;;;;;;;;21.25;17.75;;;;;14.39;57.45;99621.81;5062366;28;45292;-49
2022/04/24 05:28:40;;;;;;;;;20.00;19.25;;;;;14.40;57.53;99628.06;5070254;28;45481;-48
2022/04/24 05:31:05;;;;;;;;;20.50;17.00;;;;;14.36;57.70;99630.13;5060020;28;45560;-49
2022/04/24 05:33:31;;;;;;;;;16.00;15.00;;;;;14.41;57.17;99637.00;5060527;28;45344;-51
2022/04/24 05:35:57;;;;;;;;;20.75;18.00;;;;;14.35;57.75;99632.94;5060656;28;45293;-50
2022/04/24 05:38:22;;;;;;;;;20.25;20.25;;;;;14.33;57.37;99632.19;5042401;28;45503;-49
2022/04/24 05:40:47;;;;;;;;;16.00;16.00;;;;;14.28;57.70;99639.78;5060384;28;45539;-50
2022/04/24 05:43:13;;;;;;;;;18.00;18.00;;;;;14.24;58.00;99644.56;5060546;28;45415;-49
2022/04/24 05:45:38;;;;;;;;;19.50;17.50;;;;;14.26;57.64;99649.84;5060366;28;45298;-49
2022/04/24 05:48:04;;;;;;;;;18.00;16.25;;;;;14.26;57.73;99644.44;5060521;28;45229;-50
2022/04/24 05:50:29;;;;;;;;;22.75;19.50;;;;;14.30;57.73;99649.47;5060217;28;45335;-48
2022/04/24 05:52:56;;;;;;;;;16.00;16.00;;;;;14.30;57.42;99645.91;5060307;28;46006;-50
2022/04/24 05:55:21;;;;;;;;;19.50;18.25;;;;;14.34;57.34;99634.78;5060417;28;45328;-50
2022/04/24 05:57:49;;;;;;;;;24.25;20.25;;;;;14.39;57.27;99639.81;5060641;28;45293;-48
2022/04/24 06:00:16;;;;;;;;;21.25;19.25;;;;;14.32;57.51;99643.94;5059331;28;45454;-52
2022/04/24 06:02:41;;;;;;;;;20.50;16.50;;;;;14.29;57.61;99641.50;5060035;28;45557;-49
2022/04/24 06:05:08;;;;;;;;;18.00;18.00;;;;;14.37;57.66;99648.00;5060183;28;45368;-50
2022/04/24 06:07:33;;;;;;;;;25.25;21.75;;;;;14.37;57.08;99642.59;5059217;28;45301;-49
2022/04/24 06:09:58;;;;;;;;;21.25;18.00;;;;;14.43;57.24;99652.09;5059816;28;45818;-50
2022/04/24 06:12:24;;;;;;;;;19.00;19.00;;;;;14.44;57.19;99651.13;5059082;28;45462;-52
2022/04/24 06:14:49;;;;;;;;;18.75;16.50;;;;;14.51;56.73;99657.75;5059652;28;45335;-51
2022/04/24 06:17:14;;;;;;;;;15.75;15.75;;;;;14.57;57.38;99664.47;5059637;28;45374;-48
2022/04/24 06:19:40;;;;;;;;;17.75;17.75;;;;;14.62;56.63;99660.44;5059690;28;45311;-51
2022/04/24 06:22:05;;;;;;;;;17.50;17.50;;;;;14.65;56.64;99665.56;5059440;28;45463;-48
2022/04/24 06:24:30;;;;;;;;;22.00;20.75;;;;;14.67;56.20;99663.63;5058919;28;45402;-52
2022/04/24 06:26:56;;;;;;;;;22.50;18.25;;;;;14.68;56.25;99659.94;5067493;28;45351;-50
2022/04/24 06:29:21;;;;;;;;;18.25;16.75;;;;;14.71;56.52;99664.25;5061403;28;45312;-58
2022/04/24 06:31:46;;;;;;;;;18.25;17.00;;;;;14.76;56.02;99679.06;5058585;28;46229;-58
2022/04/24 06:34:12;;;;;;;;;24.00;22.00;;;;;14.80;56.26;99676.16;5058759;28;45269;-58
2022/04/24 06:36:37;;;;;;;;;17.75;17.75;;;;;14.84;56.01;99677.59;5059776;28;45367;-58
2022/04/24 06:39:02;;;;;;;;;22.75;19.75;;;;;14.90;56.12;99682.50;5058344;28;45336;-57
2022/04/24 06:41:28;;;;;;;;;21.50;16.75;;;;;14.97;55.96;99683.75;5059538;28;46113;-58
2022/04/24 06:43:54;;;;;;;;;26.50;22.00;;;;;15.05;55.04;99687.53;5058298;28;45414;-57
2022/04/24 06:46:20;;;;;;;;;21.50;18.75;;;;;15.09;54.58;99678.19;5059210;28;45625;-57
2022/04/24 06:48:45;;;;;;;;;2.00;0.00;;;;;15.21;55.04;99680.88;5057062;28;45962;-58
2022/04/24 06:51:10;;;;;;;;;21.00;18.50;;;;;15.30;54.18;99686.41;5059472;28;45329;-58
2022/04/24 06:53:38;;;;;;;;;20.25;20.25;;;;;15.37;54.08;99679.50;5060159;28;45359;-58
2022/04/24 06:56:04;;;;;;;;;25.00;22.50;;;;;15.44;53.12;99686.09;5059526;28;45470;-58
2022/04/24 06:58:29;;;;;;;;;23.50;20.50;;;;;15.49;53.79;99688.41;5059201;28;45307;-59
2022/04/24 07:00:55;;;;;;;;;32.50;22.50;;;;;15.56;53.50;99695.06;5058896;28;46063;-57
2022/04/24 07:03:21;;;;;;;;;22.00;18.25;;;;;15.63;53.45;99690.00;5058976;28;45367;-58
2022/04/24 07:05:47;;;;;;;;;24.75;22.50;;;;;15.70;53.01;99692.06;5058452;28;45431;-58
2022/04/24 07:08:13;;;;;;;;;27.75;25.25;;;;;15.75;52.77;99688.97;5040735;28;45231;-58
2022/04/24 07:10:39;;;;;;;;;28.75;26.50;;;;;15.79;52.30;99688.59;5058173;28;45451;-58
2022/04/24 07:13:05;;;;;;;;;26.25;25.25;;;;;15.81;52.62;99685.78;5058914;28;45318;-58
2022/04/24 07:15:34;;;;;;;;;29.25;28.75;;;;;15.91;52.39;99683.97;5059090;28;45381;-58
2022/04/24 07:17:59;;;;;;;;;23.00;22.00;;;;;15.96;52.18;99689.00;5058808;28;45475;-58
2022/04/24 07:20:27;;;;;;;;;25.00;22.50;;;;;15.97;52.09;99682.63;5058460;28;45493;-57
2022/04/24 07:22:57;;;;;;;;;28.00;26.50;;;;;16.05;51.05;99691.81;5058780;28;45434;-59
2022/04/24 07:25:24;;;;;;;;;27.00;24.00;;;;;16.08;51.67;99696.91;5059155;28;45565;-58
2022/04/24 07:27:50;;;;;;;;;25.25;24.75;;;;;16.14;51.17;99696.41;5069225;28;45445;-59
2022/04/24 07:30:17;;;;;;;;;29.75;28.25;;;;;16.20;51.38;99708.56;5058966;28;45474;-58
2022/04/24 07:32:54;;;;;;;;;33.50;30.25;;;;;16.26;50.95;99710.72;5058411;28;45266;-57
2022/04/24 07:35:28;;;;;;;;;21.25;20.75;;;;;16.32;50.66;99710.22;5058813;28;45344;-58
2022/04/24 07:37:55;;;;;;;;;30.00;27.50;;;;;16.34;50.57;99704.66;5058741;28;45418;-58
2022/04/24 07:40:23;;;;;;;;;29.50;26.75;;;;;16.37;50.51;99704.41;5058498;28;45430;-57
2022/04/24 07:42:57;;;;;;;;;23.75;23.75;;;;;16.44;49.79;99710.97;5058855;28;45393;-57
2022/04/24 07:45:24;;;;;;;;;25.25;22.50;;;;;16.47;50.42;99711.59;5058585;28;45482;-59
2022/04/24 07:47:51;;;;;;;;;29.25;26.00;;;;;16.51;50.51;99720.28;5040272;28;46183;-58
2022/04/24 07:50:18;;;;;;;;;28.75;26.00;;;;;16.57;50.36;99708.94;5058314;28;46257;-58
2022/04/24 07:52:47;;;;;;;;;30.75;25.50;;;;;16.61;50.47;99708.56;5058273;28;45364;-58
2022/04/24 07:55:19;;;;;;;;;34.00;30.50;;;;;16.67;49.70;99707.19;5060738;28;45422;-58
2022/04/24 07:57:49;;;;;;;;;32.25;30.25;;;;;16.65;49.39;99706.47;5061995;28;45613;-58
2022/04/24 08:00:16;;;;;;;;;33.00;30.25;;;;;16.75;49.47;99717.34;5060934;28;45455;-59
2022/04/24 08:03:08;;;;;;;;;27.00;27.00;;;;;16.81;49.27;99723.06;5062172;28;45406;-58
2022/04/24 08:05:39;;;;;;;;;24.50;24.25;;;;;16.84;49.09;99719.25;5062309;28;45367;-58
2022/04/24 08:08:24;;;;;;;;;33.25;29.00;;;;;16.82;48.83;99708.53;5060789;28;45438;-58
2022/04/24 08:10:54;;;;;;;;;34.75;31.00;;;;;16.89;48.64;99717.84;5061890;28;46062;-58
2022/04/24 08:13:20;;;;;;;;;29.50;26.50;;;;;16.91;49.00;99726.69;5048522;28;45305;-59
2022/04/24 08:15:47;;;;;;;;;30.50;27.25;;;;;16.91;48.66;99718.56;5061873;28;45378;-59
2022/04/24 08:18:13;;;;;;;;;44.25;34.25;;;;;16.95;48.39;99724.53;5061205;28;45466;-58
2022/04/24 08:20:40;;;;;;;;;35.50;29.75;;;;;17.00;48.42;99725.03;5061691;28;45331;-59
2022/04/24 08:23:06;;;;;;;;;30.25;29.25;;;;;17.07;48.48;99738.88;5061555;28;45300;-58
2022/04/24 08:25:35;;;;;;;;;32.25;31.50;;;;;17.08;47.61;99730.59;5061897;28;45470;-58
2022/04/24 08:28:02;;;;;;;;;33.75;32.75;;;;;17.09;47.42;99732.31;5071293;28;45431;-58
2022/04/24 08:30:28;;;;;;;;;35.75;31.75;;;;;17.11;47.95;99733.03;5061099;28;46403;-58
2022/04/24 08:32:53;;;;;;;;;35.25;29.00;;;;;17.15;47.73;99730.91;5061627;28;45352;-58
2022/04/24 08:35:19;;;;;;;;;27.50;24.75;;;;;17.16;48.12;99736.19;5061670;28;45722;-59
2022/04/24 08:37:46;;;;;;;;;39.50;32.75;;;;;17.17;48.06;99731.66;5061362;28;45496;-58
2022/04/24 08:40:14;;;;;;;;;32.75;29.00;;;;;17.20;47.96;99739.47;5061227;28;46045;-59
2022/04/24 08:42:40;;;;;;;;;38.50;33.00;;;;;17.21;48.26;99728.50;5061536;28;45379;-58
2022/04/24 08:45:10;;;;;;;;;38.75;33.00;;;;;17.20;47.96;99728.63;5061319;28;45426;-59
2022/04/24 08:47:35;;;;;;;;;35.25;31.75;;;;;17.21;47.65;99738.47;5061294;28;45954;-57
2022/04/24 08:50:01;;;;;;;;;32.00;30.00;;;;;17.20;47.34;99732.22;5061114;28;46137;-58
2022/04/24 08:52:29;;;;;;;;;31.00;29.50;;;;;17.26;47.61;99736.25;5060038;28;45337;-58
2022/04/24 08:54:56;;;;;;;;;31.75;29.50;;;;;17.30;47.71;99738.53;5062555;28;45390;-58
2022/04/24 08:57:26;;;;;;;;;32.50;30.00;;;;;17.36;47.17;99748.78;5061268;28;45528;-59
2022/04/24 08:59:54;;;;;;;;;34.00;29.75;;;;;17.39;46.96;99750.38;5060014;28;46261;-58
2022/04/24 09:02:20;;;;;;;;;29.00;28.25;;;;;17.44;46.90;99742.69;5061056;28;45288;-59
2022/04/24 09:04:45;;;;;;;;;27.25;25.25;;;;;17.51;47.39;99741.16;5060976;28;45402;-58
2022/04/24 09:07:17;;;;;;;;;31.00;28.50;;;;;17.59;47.22;99749.44;5060253;28;45349;-60
2022/04/24 09:09:45;;;;;;;;;38.25;32.25;;;;;17.64;46.82;99752.63;5060503;28;47389;-59
2022/04/24 09:12:12;;;;;;;;;31.00;29.25;;;;;17.64;46.63;99739.06;5060847;28;45406;-58
2022/04/24 09:14:38;;;;;;;;;34.75;31.00;;;;;17.70;46.93;99752.06;5060836;28;45311;-58
2022/04/24 09:17:05;;;;;;;;;29.25;27.75;;;;;17.73;46.90;99754.50;5060642;28;45251;-58
2022/04/24 09:19:31;;;;;;;;;36.25;28.75;;;;;17.79;46.68;99755.78;5060561;28;46358;-57
2022/04/24 09:22:08;;;;;;;;;40.00;32.00;;;;;17.77;46.27;99760.50;5059980;28;45430;-59
2022/04/24 09:24:49;;;;;;;;;33.50;30.25;;;;;17.74;45.90;99756.22;5059884;28;45358;-58
2022/04/24 09:27:26;;;;;;;;;33.00;31.00;;;;;17.82;46.08;99758.22;5071150;28;46162;-57
2022/04/24 09:29:58;;;;;;;;;27.75;27.75;;;;;17.80;45.52;99760.22;5059812;28;45521;-59
2022/04/24 09:32:25;;;;;;;;;34.00;30.00;;;;;17.73;45.82;99762.63;5060286;28;45319;-59
2022/04/24 09:34:52;;;;;;;;;30.75;30.25;;;;;17.73;46.22;99761.78;5060609;28;45292;-59
2022/04/24 09:37:18;;;;;;;;;36.75;31.25;;;;;17.80;46.29;99767.50;5060151;28;46021;-58
2022/04/24 09:39:44;;;;;;;;;27.75;27.75;;;;;17.78;45.70;99767.63;5060464;28;45296;-60
2022/04/24 09:42:14;;;;;;;;;32.00;30.50;;;;;17.89;45.68;99778.34;5060544;28;45390;-60
2022/04/24 09:44:42;;;;;;;;;35.50;30.00;;;;;17.99;45.46;99770.22;5060525;28;45134;-59
2022/04/24 09:47:08;;;;;;;;;28.75;28.00;;;;;18.08;44.81;99770.25;5059549;28;45541;-60
2022/04/24 09:49:42;;;;;;;;;34.25;29.50;;;;;18.11;44.83;99767.25;5060424;28;46210;-60
2022/04/24 09:52:19;;;;;;;;;36.50;32.00;;;;;18.20;44.89;99767.41;5060221;28;45442;-59
2022/04/24 09:54:47;;;;;;;;;34.50;29.25;;;;;18.26;44.65;99778.53;5061117;28;45469;-59
2022/04/24 09:57:14;;;;;;;;;32.25;30.25;;;;;18.33;44.95;99776.09;5060582;28;45474;-60
2022/04/24 09:59:41;;;;;;;;;36.75;31.50;;;;;18.37;44.88;99778.38;5059376;28;45431;-59
2022/04/24 10:02:08;;;;;;;;;30.50;28.50;;;;;18.41;44.06;99782.53;5060172;28;45355;-60
2022/04/24 10:04:35;;;;;;;;;34.00;31.75;;;;;18.36;44.32;99786.69;5060212;28;45345;-58
2022/04/24 10:07:06;;;;;;;;;29.75;28.75;;;;;18.45;44.86;99791.25;5060142;28;46161;-58
2022/04/24 10:09:43;;;;;;;;;34.75;30.75;;;;;18.45;44.28;99783.09;5058861;28;46109;-58
2022/04/24 10:12:10;;;;;;;;;27.00;23.75;;;;;18.52;43.63;99789.66;5059530;28;45543;-59
2022/04/24 10:14:58;;;;;;;;;32.25;28.25;;;;;18.63;43.31;99796.84;5060211;28;45506;-58
2022/04/24 10:17:52;;;;;;;;;31.00;31.00;;;;;18.75;43.03;99799.25;5046112;28;45564;-57
2022/04/24 10:20:36;;;;;;;;;27.75;27.25;;;;;18.90;42.36;99797.78;5059970;28;46405;-59
2022/04/24 10:23:01;;;;;;;;;29.75;24.00;;;;;18.97;42.47;99798.03;5059676;28;45303;-58
2022/04/24 10:25:32;;;;;;;;;29.00;26.50;;;;;19.09;42.05;99791.44;5060308;28;45480;-59
2022/04/24 10:28:11;;;;;;;;;42.00;30.75;;;;;19.20;41.89;99794.00;5068811;28;45516;-59
2022/04/24 10:30:37;;;;;;;;;28.00;27.50;;;;;19.30;41.99;99798.53;5041194;28;48081;-64
2022/04/24 10:33:18;;;;;;;;;30.50;26.75;;;;;19.44;41.22;99809.75;5059944;28;45431;-68
2022/04/24 10:36:02;;;;;;;;;34.75;28.75;;;;;19.57;41.35;99810.28;5059841;28;45390;-65
2022/04/24 10:38:29;;;;;;;;;34.50;32.00;;;;;19.65;41.01;99815.84;5058945;28;45581;-64
2022/04/24 10:41:13;;;;;;;;;30.00;28.00;;;;;19.72;41.04;99820.69;5059535;28;45328;-71
2022/04/24 10:43:46;;;;;;;;;29.00;26.25;;;;;19.78;41.01;99822.81;5059720;28;45506;-62
2022/04/24 10:46:20;;;;;;;;;27.50;27.25;;;;;19.87;40.75;99830.91;5059783;28;45314;-62
2022/04/24 10:48:47;;;;;;;;;23.50;21.25;;;;;19.95;40.88;99821.97;5059487;28;45463;-65
2022/04/24 10:51:14;;;;;;;;;27.75;24.00;;;;;20.02;40.62;99840.25;5058406;28;45739;-65
2022/04/24 10:53:55;;;;;;;;;31.75;27.25;;;;;20.10;40.65;99834.06;5042504;28;45419;-64
2022/04/24 10:56:21;;;;;;;;;31.50;26.00;;;;;20.04;39.92;99831.97;5059666;28;45327;-62
2022/04/24 10:58:48;;;;;;;;;32.25;29.50;;;;;19.96;40.57;99840.03;5059408;28;45222;-66
2022/04/24 11:01:15;;;;;;;;;29.00;26.50;;;;;20.03;41.07;99839.25;5059284;28;46613;-72
2022/04/24 11:03:42;;;;;;;;;31.50;28.25;;;;;20.18;40.41;99838.72;5059347;28;45335;-64
2022/04/24 11:06:19;;;;;;;;;24.75;23.50;;;;;20.22;40.32;99841.00;5059567;28;45357;-68
2022/04/24 11:08:45;;;;;;;;;25.50;21.50;;;;;20.31;40.77;99842.81;5059150;28;45233;-70
2022/04/24 11:11:15;;;;;;;;;31.25;25.00;;;;;20.39;40.20;99825.72;5058265;28;45388;-72
2022/04/24 11:13:41;;;;;;;;;31.00;23.25;;;;;20.51;39.88;99843.53;5059386;28;45376;-64
2022/04/24 11:16:09;;;;;;;;;24.25;23.75;;;;;20.60;40.15;99847.19;5059265;28;45402;-69
2022/04/24 11:18:36;;;;;;;;;29.25;26.75;;;;;20.68;39.48;99848.09;5059333;28;45436;-62
2022/04/24 11:21:06;;;;;;;;;32.50;24.00;;;;;20.76;39.81;99850.91;5058165;28;45361;-66
2022/04/24 11:23:32;;;;;;;;;28.75;24.00;;;;;20.84;40.03;99852.84;5059012;28;45380;-57
2022/04/24 11:25:58;;;;;;;;;28.50;26.00;;;;;20.90;39.98;99849.50;5059226;28;45403;-61
2022/04/24 11:28:34;;;;;;;;;32.75;29.50;;;;;20.95;39.31;99852.59;5048090;28;45363;-59
2022/04/24 11:31:17;;;;;;;;;29.00;23.50;;;;;21.02;39.05;99858.25;5058444;28;46919;-55
2022/04/24 11:33:53;;;;;;;;;27.00;23.25;;;;;21.09;39.01;99860.22;5059031;28;45447;-66
2022/04/24 11:36:18;;;;;;;;;27.25;25.25;;;;;21.12;38.97;99846.25;5059039;28;45407;-63
2022/04/24 11:38:51;;;;;;;;;29.50;27.25;;;;;21.13;38.01;99853.44;5057744;28;45407;-63
2022/04/24 11:41:18;;;;;;;;;28.00;28.00;;;;;21.15;38.38;99854.13;5058850;28;46308;-63
2022/04/24 11:43:44;;;;;;;;;24.75;23.25;;;;;21.18;38.43;99849.41;5059209;28;45346;-63
2022/04/24 11:51:38;;;;;;;;;25.50;23.00;;;;;21.64;37.97;99859.91;5058400;28;45313;-62
2022/04/24 11:54:06;;;;;;;;;22.00;20.25;;;;;21.57;37.54;99858.84;5060197;28;45285;-64
2022/04/24 11:56:32;;;;;;;;;26.75;23.00;;;;;21.55;37.57;99869.06;5058526;28;45343;-60
2022/04/24 11:59:35;;;;;;;;;26.75;20.75;;;;;21.52;37.50;99864.78;5058721;28;45362;-59
2022/04/24 12:02:00;;;;;;;;;20.25;19.25;;;;;21.60;36.80;99863.13;4976327;28;45623;-61
2022/04/24 12:04:31;;;;;;;;;21.00;20.75;;;;;21.65;36.38;99861.63;5041891;28;45470;-60
2022/04/24 12:07:07;;;;;;;;;23.75;19.00;;;;;21.79;36.28;99861.00;5057927;28;45350;-59
2022/04/24 12:09:34;;;;;;;;;21.50;20.25;;;;;21.86;36.44;99861.22;5058138;28;45506;-63
2022/04/24 12:12:07;;;;;;;;;20.25;18.50;;;;;21.94;36.29;99865.84;5058487;28;46487;-64
2022/04/24 12:14:34;;;;;;;;;22.00;19.25;;;;;22.03;35.55;99873.09;5058273;28;45406;-62
2022/04/24 12:17:04;;;;;;;;;22.00;20.00;;;;;22.07;35.77;99872.59;5058240;28;45316;-62
2022/04/24 12:19:30;;;;;;;;;22.25;19.25;;;;;22.14;35.26;99875.50;5058184;28;45348;-61
2022/04/24 12:21:55;;;;;;;;;23.00;21.00;;;;;22.24;34.85;99878.94;5058115;28;46125;-62
2022/04/24 12:24:21;;;;;;;;;21.75;18.50;;;;;22.25;35.22;99881.53;5057998;28;45305;-63
2022/04/24 12:26:53;;;;;;;;;24.75;20.75;;;;;22.27;34.89;99890.41;5064644;28;45390;-62
2022/04/24 12:29:19;;;;;;;;;22.00;20.50;;;;;22.34;35.25;99889.72;5060432;28;45403;-65
2022/04/24 12:31:46;;;;;;;;;19.50;17.00;;;;;22.37;34.51;99901.16;5057124;28;45416;-62
2022/04/24 12:34:12;;;;;;;;;23.50;22.50;;;;;22.47;34.72;99890.94;5039887;28;45421;-62
2022/04/24 12:36:49;;;;;;;;;24.50;24.00;;;;;22.55;34.19;99893.69;5058333;28;45383;-62
2022/04/24 12:39:14;;;;;;;;;19.50;18.75;;;;;22.72;33.95;99897.31;5057603;28;46002;-61
2022/04/24 12:41:40;;;;;;;;;23.25;19.00;;;;;22.93;33.62;99899.59;5060354;28;46268;-62
2022/04/24 12:44:07;;;;;;;;;18.00;17.75;;;;;23.19;33.74;99893.97;5061544;28;45374;-62
2022/04/24 12:46:34;;;;;;;;;27.75;22.25;;;;;23.30;32.38;99886.28;5061676;28;45199;-62
2022/04/24 12:49:00;;;;;;;;;20.75;19.75;;;;;23.32;32.94;99889.66;5061330;28;45357;-62
2022/04/24 12:51:26;;;;;;;;;19.75;17.50;;;;;23.33;33.07;99896.84;5061191;28;46217;-63
2022/04/24 12:53:56;;;;;;;;;20.25;19.75;;;;;23.21;32.75;99903.72;5061843;28;45304;-61
2022/04/24 12:56:21;;;;;;;;;23.00;19.50;;;;;23.18;33.40;99895.84;5061597;28;45337;-62
2022/04/24 12:58:47;;;;;;;;;20.00;18.75;;;;;23.10;32.94;99904.03;5061216;28;45308;-63
2022/04/24 13:01:14;;;;;;;;;18.75;17.75;;;;;22.95;32.90;99912.09;5061214;28;45993;-62
2022/04/24 13:03:40;;;;;;;;;18.75;17.50;;;;;22.79;33.59;99909.34;5061171;28;45390;-63
2022/04/24 13:06:10;;;;;;;;;20.25;18.75;;;;;22.61;33.57;99905.84;5060757;28;45337;-62
2022/04/24 13:08:36;;;;;;;;;19.25;16.50;;;;;22.47;33.63;99907.34;5060990;28;45395;-63
2022/04/24 13:11:02;;;;;;;;;16.00;15.25;;;;;22.35;34.28;99905.09;5060902;28;46045;-62
2022/04/24 13:13:32;;;;;;;;;22.50;19.00;;;;;22.26;34.49;99909.69;5060400;28;45433;-62
2022/04/24 13:18:42;;;;;;;;;20.00;18.50;;;;;22.09;34.59;99910.63;5061184;28;45403;-62
2022/04/24 13:21:08;;;;;;;;;19.00;16.75;;;;;22.02;34.76;99907.72;5061009;28;46143;-68
2022/04/24 13:23:33;;;;;;;;;20.00;19.00;;;;;21.93;34.42;99916.00;5060170;28;45406;-62
2022/04/24 13:25:59;;;;;;;;;19.00;15.25;;;;;21.88;34.68;99906.41;5057790;28;45414;-63
2022/04/24 13:28:24;;;;;;;;;17.00;16.50;;;;;21.80;34.67;99908.25;5070272;28;45502;-62
2022/04/24 13:30:50;;;;;;;;;18.75;18.75;;;;;21.78;34.81;99915.72;5059927;28;46084;-63
2022/04/24 13:33:19;;;;;;;;;19.75;16.75;;;;;21.72;35.22;99914.50;5060894;28;45313;-63
2022/04/24 13:35:45;;;;;;;;;21.50;17.00;;;;;21.69;34.75;99917.56;5060821;28;45427;-63
2022/04/24 13:38:19;;;;;;;;;17.50;16.25;;;;;21.61;34.81;99914.78;5060429;28;45383;-62
2022/04/24 13:40:53;;;;;;;;;13.50;13.00;;;;;21.53;35.39;99921.03;5060296;28;46083;-61
2022/04/24 13:43:19;;;;;;;;;19.50;17.25;;;;;21.53;35.43;99914.72;5057361;28;45700;-62
2022/04/24 13:45:47;;;;;;;;;17.75;17.75;;;;;21.85;34.37;99906.75;5059496;28;45390;-62
2022/04/24 13:48:12;;;;;;;;;13.25;13.25;;;;;22.46;34.14;99910.22;5060486;28;45408;-62
2022/04/24 13:50:38;;;;;;;;;15.75;14.25;;;;;22.85;33.08;99908.66;5060492;28;45398;-63
2022/04/24 13:53:04;;;;;;;;;18.50;15.75;;;;;23.09;33.55;99917.88;5060144;28;45379;-62
2022/04/24 13:55:30;;;;;;;;;19.00;16.75;;;;;23.18;32.97;99916.84;5061597;28;45321;-62
2022/04/24 13:57:56;;;;;;;;;16.75;15.50;;;;;23.16;33.09;99916.16;5059843;28;45491;-63
2022/04/24 14:00:23;;;;;;;;;18.75;16.50;;;;;23.14;33.17;99918.25;5060051;28;45401;-62
2022/04/24 14:02:49;;;;;;;;;14.75;14.25;;;;;23.14;33.16;99921.81;5060338;28;45270;-63
2022/04/24 14:05:15;;;;;;;;;16.50;14.75;;;;;23.18;33.32;99916.84;5062027;28;45452;-62
2022/04/24 14:07:40;;;;;;;;;14.75;14.75;;;;;23.19;33.08;99913.09;5056698;28;45640;-62
2022/04/24 14:10:07;;;;;;;;;19.75;15.50;;;;;23.11;32.49;99913.97;5059936;28;46303;-62
2022/04/24 14:12:33;;;;;;;;;17.00;13.75;;;;;23.07;32.91;99920.78;5059559;28;45275;-62
2022/04/24 14:14:58;;;;;;;;;11.00;11.00;;;;;23.06;32.68;99926.41;5057845;28;45436;-62
2022/04/24 14:17:24;;;;;;;;;14.50;12.75;;;;;23.00;32.68;99925.22;5068090;28;45396;-62
2022/04/24 14:19:49;;;;;;;;;17.25;16.25;;;;;22.95;32.64;99924.91;5059645;28;46318;-62
2022/04/24 14:22:15;;;;;;;;;13.25;10.50;;;;;22.87;33.16;99922.16;5059548;28;45363;-63
2022/04/24 14:24:40;;;;;;;;;15.25;13.50;;;;;22.81;33.08;99922.81;5059948;28;45680;-61
2022/04/24 14:27:05;;;;;;;;;16.50;14.25;;;;;22.68;32.92;99925.16;5069265;28;45469;-63
2022/04/24 14:29:31;;;;;;;;;14.75;14.75;;;;;22.61;33.09;99924.97;5061047;28;46117;-61
2022/04/24 14:31:56;;;;;;;;;16.00;16.00;;;;;22.47;33.48;99918.28;5059566;28;45538;-62
2022/04/24 14:34:22;;;;;;;;;21.00;20.00;;;;;22.38;33.06;99923.88;5058894;28;45323;-62
2022/04/24 14:36:48;;;;;;;;;18.00;15.00;;;;;22.23;33.69;99923.66;5059732;28;45346;-62
2022/04/24 14:39:13;;;;;;;;;15.50;15.00;;;;;22.10;34.01;99929.59;5058468;28;45563;-61
2022/04/24 14:41:38;;;;;;;;;18.00;17.00;;;;;22.03;34.40;99923.06;5059686;28;45664;-63
2022/04/24 14:44:05;;;;;;;;;20.75;17.25;;;;;21.99;34.36;99931.75;5059730;28;45461;-62
2022/04/24 14:57:28;;;;;;;;;17.00;15.00;;;;;22.01;33.47;99914.19;5046425;28;45426;-62
2022/04/24 14:59:55;;;;;;;;;12.75;11.00;;;;;22.25;33.70;99938.00;5056438;28;47243;-63
2022/04/24 15:02:21;;;;;;;;;17.00;17.00;;;;;22.36;33.05;99929.53;5038750;28;45416;-62
2022/04/24 15:04:47;;;;;;;;;17.25;15.00;;;;;22.42;33.29;99933.44;5057065;28;45390;-63
2022/04/24 15:07:12;;;;;;;;;16.50;15.00;;;;;22.45;33.68;99936.72;5056850;28;45350;-62
2022/04/24 15:09:38;;;;;;;;;16.75;14.00;;;;;22.39;33.51;99934.63;5057082;28;46988;-62
2022/04/24 15:12:04;;;;;;;;;18.00;15.00;;;;;22.42;33.33;99942.50;5053594;28;45689;-62
2022/04/24 15:14:30;;;;;;;;;16.75;14.25;;;;;22.42;32.86;99944.38;5055528;28;46477;-62
2022/04/24 15:16:56;;;;;;;;;14.00;14.00;;;;;22.51;33.24;99943.38;5056765;28;45517;-61
2022/04/24 15:19:21;;;;;;;;;15.75;13.00;;;;;22.71;32.39;99953.00;5057571;28;45431;-61
2022/04/24 15:21:47;;;;;;;;;18.50;17.00;;;;;22.99;31.99;99950.84;5056976;28;45311;-60
2022/04/24 15:24:19;;;;;;;;;18.00;17.50;;;;;23.45;31.80;99962.16;5056932;28;45343;-60
2022/04/24 15:26:46;;;;;;;;;14.75;13.75;;;;;23.95;31.47;99950.97;5061999;28;45864;-61
2022/04/24 15:29:11;;;;;;;;;17.00;16.00;;;;;24.36;31.02;99955.31;5061472;28;45308;-60
2022/04/24 15:31:37;;;;;;;;;19.50;15.25;;;;;24.70;30.84;99951.38;5056546;28;45515;-62
2022/04/24 15:34:02;;;;;;;;;19.00;17.25;;;;;24.87;30.09;99945.59;5057221;28;45229;-58
2022/04/24 15:36:29;;;;;;;;;17.25;17.25;;;;;24.88;29.87;99946.47;5056492;28;45453;-64
2022/04/24 15:38:54;;;;;;;;;17.25;17.25;;;;;24.88;29.53;99944.56;5057001;28;46130;-70
2022/04/24 15:41:21;;;;;;;;;16.25;16.00;;;;;24.67;29.95;99951.75;5055900;28;45398;-61
2022/04/24 15:43:46;;;;;;;;;19.00;17.50;;;;;24.43;29.31;99941.75;5056673;28;46385;-59
2022/04/24 15:46:15;;;;;;;;;19.25;17.25;;;;;24.24;29.78;99959.50;5056256;28;45288;-59
2022/04/24 15:48:41;;;;;;;;;17.50;16.00;;;;;23.98;30.39;99954.25;5056023;28;45288;-60
2022/04/24 15:51:06;;;;;;;;;18.75;15.50;;;;;23.83;31.07;99958.69;5056043;28;45458;-60
2022/04/24 15:53:32;;;;;;;;;17.00;17.00;;;;;23.71;31.31;99960.09;5069004;28;45305;-60
2022/04/24 15:55:58;;;;;;;;;17.50;15.25;;;;;23.56;30.79;99965.41;5056471;28;45331;-60
2022/04/24 15:58:24;;;;;;;;;17.25;17.00;;;;;23.39;30.50;99964.53;5056313;28;46401;-60
2022/04/24 16:00:49;;;;;;;;;16.25;16.00;;;;;23.22;30.93;99970.19;5055736;28;45466;-60
2022/04/24 16:03:14;;;;;;;;;21.25;17.25;;;;;23.08;30.80;99965.38;5038457;28;45442;-60
2022/04/24 16:05:40;;;;;;;;;18.75;17.75;;;;;22.90;31.47;99968.25;5057068;28;45603;-60
2022/04/24 16:08:05;;;;;;;;;17.50;17.50;;;;;22.75;32.12;99964.47;5055474;28;45363;-61
2022/04/24 16:10:31;;;;;;;;;20.25;19.50;;;;;22.62;32.10;99964.94;5056678;28;45463;-60